createdAt,value
2022-09-05T00:02:03.293Z,102012.66
2022-09-05T00:05:09.964Z,102014.03
2022-09-05T00:08:19.693Z,102014.19
2022-09-05T00:11:41.346Z,102002.56
2022-09-05T00:15:14.820Z,102008.94
2022-09-05T00:21:27.102Z,102008.56
2022-09-05T00:24:21.928Z,102007.72
2022-09-05T00:25:31.393Z,102003.31
2022-09-05T00:28:32.198Z,102004.19
2022-09-05T00:31:55.598Z,102009.25
2022-09-05T00:34:36.231Z,102007.91
2022-09-05T00:37:28.392Z,102006.94
2022-09-05T00:40:19.134Z,102007.25
2022-09-05T00:42:53.596Z,102006.88
2022-09-05T00:45:31.054Z,102003.50
2022-09-05T00:48:08.786Z,102003.03
2022-09-05T00:50:47.005Z,102006.81
2022-09-05T00:53:36.670Z,102015.41
2022-09-05T00:56:46.467Z,102013.72
2022-09-05T01:00:03.947Z,102013.03
2022-09-05T01:02:53.569Z,102011.34
2022-09-05T01:06:00.622Z,102009.34
2022-09-05T01:08:56.212Z,102013.88
2022-09-05T01:12:05.528Z,102007.00
2022-09-05T01:15:01.541Z,102006.50
2022-09-05T01:17:29.779Z,102009.69
2022-09-05T01:20:38.645Z,102015.09
2022-09-05T01:23:43.820Z,102005.31
2022-09-05T01:26:41.076Z,102007.50
2022-09-05T01:29:38.592Z,102005.94
2022-09-05T01:32:33.092Z,102004.88
2022-09-05T01:35:39.398Z,102002.50
2022-09-05T01:38:35.638Z,102005.22
2022-09-05T01:41:33.683Z,102010.75
2022-09-05T01:44:16.327Z,102003.81
2022-09-05T01:46:52.562Z,102004.66
2022-09-05T01:49:25.300Z,102005.22
2022-09-05T01:52:15.669Z,102004.38
2022-09-05T01:55:13.649Z,102002.44
2022-09-05T01:57:53.369Z,102009.81
2022-09-05T02:00:39.445Z,102004.13
2022-09-05T02:03:23.591Z,102007.13
2022-09-05T02:06:03.627Z,102007.81
2022-09-05T02:08:41.857Z,102002.72
2022-09-05T02:11:16.514Z,102002.72
2022-09-05T02:14:33.835Z,102006.75
2022-09-05T02:17:50.067Z,102007.91
2022-09-05T02:20:23.791Z,102005.50
2022-09-05T02:23:44.632Z,101997.75
2022-09-05T02:26:17.280Z,102005.44
2022-09-05T02:29:00.502Z,102000.69
2022-09-05T02:31:57.679Z,101999.16
2022-09-05T02:34:41.237Z,102003.69
2022-09-05T02:38:03.265Z,102003.97
2022-09-05T02:45:08.711Z,101996.22
2022-09-05T02:45:13.250Z,101994.38
2022-09-05T02:47:06.538Z,101997.22
2022-09-05T02:52:42.433Z,102003.44
2022-09-05T02:57:39.469Z,101999.19
2022-09-05T02:57:42.872Z,101998.59
2022-09-05T02:59:31.010Z,102010.31
2022-09-05T03:05:30.482Z,102017.00
2022-09-05T03:08:27.080Z,102012.22
2022-09-05T03:11:36.811Z,102020.28
2022-09-05T03:14:42.644Z,102026.75
2022-09-05T03:17:48.277Z,102034.00
2022-09-05T03:21:09.115Z,102032.84
2022-09-05T03:24:22.774Z,102041.94
2022-09-05T03:27:15.934Z,102040.81
2022-09-05T03:29:44.385Z,102038.72
2022-09-05T03:32:50.225Z,102039.69
2022-09-05T03:35:55.738Z,102034.16
2022-09-05T03:39:03.036Z,102034.75
2022-09-05T03:41:50.258Z,102044.28
2022-09-05T03:44:42.097Z,102043.53
2022-09-05T03:47:48.369Z,102047.47
2022-09-05T03:56:48.643Z,102042.94
2022-09-05T03:57:17.818Z,102043.13
2022-09-05T03:57:33.711Z,102046.44
2022-09-05T04:00:21.802Z,102056.75
2022-09-05T04:08:14.567Z,102056.16
2022-09-05T04:08:19.337Z,102050.75
2022-09-05T04:10:30.432Z,102054.88
2022-09-05T04:13:02.230Z,102059.72
2022-09-05T04:15:40.377Z,102058.09
2022-09-05T04:18:38.703Z,102059.22
2022-09-05T04:21:15.934Z,102061.94
2022-09-05T04:24:05.597Z,102059.97
2022-09-05T04:27:15.821Z,102066.44
2022-09-05T04:30:39.377Z,102070.25
2022-09-05T04:33:10.502Z,102074.66
2022-09-05T04:36:18.293Z,102074.56
2022-09-05T04:39:23.284Z,102068.00
2022-09-05T04:41:58.881Z,102061.63
2022-09-05T04:44:48.459Z,102065.16
2022-09-05T04:47:43.023Z,102064.72
2022-09-05T04:50:23.709Z,102068.06
2022-09-05T04:53:13.840Z,102070.28
2022-09-05T04:55:50.822Z,102069.31
2022-09-05T04:59:25.613Z,102066.09
2022-09-05T05:06:02.109Z,102071.84
2022-09-05T05:06:18.133Z,102069.50
2022-09-05T05:07:31.675Z,102068.66
2022-09-05T05:10:30.363Z,102066.81
2022-09-05T05:17:56.859Z,102057.69
2022-09-05T05:18:11.320Z,102055.69
2022-09-05T05:19:21.731Z,102062.44
2022-09-05T05:21:58.539Z,102054.84
2022-09-05T05:24:34.204Z,102050.25
2022-09-05T05:27:31.909Z,102060.06
2022-09-05T05:30:08.144Z,102056.47
2022-09-05T05:32:46.823Z,102067.47
2022-09-05T05:35:48.206Z,102075.88
2022-09-05T05:38:32.059Z,102079.56
2022-09-05T05:41:26.986Z,102080.91
2022-09-05T05:44:16.163Z,102075.44
2022-09-05T05:47:01.027Z,102079.78
2022-09-05T05:50:01.555Z,102084.19
2022-09-05T05:53:43.238Z,102079.72
2022-09-05T05:56:46.081Z,102078.66
2022-09-05T05:59:56.651Z,102079.56
2022-09-05T06:02:42.615Z,102081.88
2022-09-05T06:05:28.726Z,102086.66
2022-09-05T06:09:30.426Z,102090.97
2022-09-05T06:14:51.252Z,102084.19
2022-09-05T06:15:27.286Z,102093.72
2022-09-05T06:18:20.058Z,102099.19
2022-09-05T06:22:08.492Z,102086.72
2022-09-05T06:24:45.942Z,102089.47
2022-09-05T06:28:17.696Z,102094.13
2022-09-05T06:30:57.273Z,102099.03
2022-09-05T06:34:32.859Z,102092.88
2022-09-05T06:37:44.041Z,102098.84
2022-09-05T06:40:51.457Z,102101.69
2022-09-05T06:43:56.372Z,102100.72
2022-09-05T06:46:55.479Z,102111.88
2022-09-05T06:49:38.190Z,102106.03
2022-09-05T06:52:38.141Z,102090.91
2022-09-05T06:55:09.121Z,102096.94
2022-09-05T06:58:12.798Z,102091.50
2022-09-05T07:00:59.991Z,102092.81
2022-09-05T07:03:47.190Z,102091.72
2022-09-05T07:06:48.039Z,102088.06
2022-09-05T07:09:44.165Z,102089.09
2022-09-05T07:12:40.642Z,102083.66
2022-09-05T07:15:14.514Z,102078.72
2022-09-05T07:18:14.269Z,102085.09
2022-09-05T07:21:15.898Z,102069.91
2022-09-05T07:24:12.697Z,102073.94
2022-09-05T07:26:53.657Z,102068.69
2022-09-05T07:30:00.725Z,102071.78
2022-09-05T07:32:41.937Z,102066.34
2022-09-05T07:35:38.467Z,102067.66
2022-09-05T07:38:49.038Z,102062.66
2022-09-05T07:41:25.727Z,102060.88
2022-09-05T07:44:11.211Z,102061.47
2022-09-05T07:46:41.586Z,102061.44
2022-09-05T07:49:16.449Z,102060.63
2022-09-05T07:56:56.644Z,102067.19
2022-09-05T07:57:06.509Z,102058.06
2022-09-05T07:57:51.970Z,102055.13
2022-09-05T08:00:29.655Z,102051.22
2022-09-05T08:03:10.724Z,102042.66
2022-09-05T08:05:49.952Z,102046.00
2022-09-05T08:09:18.099Z,102043.50
2022-09-05T08:11:37.503Z,102039.75
2022-09-05T08:14:38.517Z,102036.81
2022-09-05T08:16:54.143Z,102025.50
2022-09-05T08:19:50.289Z,102030.09
2022-09-05T08:22:23.760Z,102022.94
2022-09-05T08:25:17.617Z,102018.75
2022-09-05T08:28:25.377Z,102021.66
2022-09-05T08:31:15.171Z,102017.00
2022-09-05T08:33:44.260Z,102017.88
2022-09-05T08:36:26.401Z,102010.03
2022-09-05T08:38:58.490Z,102009.84
2022-09-05T08:41:50.745Z,102011.47
2022-09-05T08:46:40.815Z,101999.34
2022-09-05T08:47:28.478Z,101998.19
2022-09-05T08:50:43.843Z,101994.31
2022-09-05T08:53:46.498Z,101996.38
2022-09-05T08:56:29.231Z,102003.88
2022-09-05T09:17:51.853Z,101967.94
2022-09-05T09:20:57.545Z,101962.75
2022-09-05T09:23:44.287Z,101963.59
2022-09-05T09:26:28.416Z,101961.25
2022-09-05T09:29:10.649Z,101953.97
2022-09-05T09:32:04.143Z,101947.59
2022-09-05T09:35:12.417Z,101945.63
2022-09-05T09:38:07.800Z,101941.72
2022-09-05T09:41:13.647Z,101935.31
2022-09-05T09:44:12.758Z,101941.72
2022-09-05T09:46:52.040Z,101932.34
2022-09-05T09:49:55.654Z,101932.44
2022-09-05T09:52:55.087Z,101939.59
2022-09-05T09:55:54.631Z,101931.91
2022-09-05T09:59:00.086Z,101929.41
2022-09-05T10:04:31.210Z,101927.53
2022-09-05T10:10:44.491Z,101919.75
2022-09-05T10:10:49.034Z,101933.28
2022-09-05T10:16:49.956Z,101912.69
2022-09-05T10:20:08.715Z,101911.69
2022-09-05T10:23:26.007Z,101911.81
2022-09-05T10:26:17.887Z,101909.41
2022-09-05T10:29:41.685Z,101904.03
2022-09-05T10:35:07.717Z,101903.25
2022-09-05T10:35:45.758Z,101906.03
2022-09-05T10:38:41.086Z,101902.25
2022-09-05T10:41:30.740Z,101895.28
2022-09-05T10:44:05.396Z,101896.84
2022-09-05T10:46:58.200Z,101893.75
2022-09-05T10:49:38.004Z,101896.22
2022-09-05T10:52:27.861Z,101896.06
2022-09-05T10:55:22.152Z,101893.47
2022-09-05T10:58:19.711Z,101891.38
2022-09-05T11:02:29.554Z,101890.34
2022-09-05T11:05:05.358Z,101880.78
2022-09-05T11:08:07.809Z,101881.84
2022-09-05T11:11:28.455Z,101876.56
2022-09-05T11:14:37.205Z,101874.25
2022-09-05T11:17:41.809Z,101871.66
2022-09-05T11:21:00.574Z,101860.78
2022-09-05T11:23:37.693Z,101852.50
2022-09-05T11:26:31.483Z,101854.72
2022-09-05T11:29:12.970Z,101855.22
2022-09-05T11:34:04.200Z,101853.44
2022-09-05T11:39:54.233Z,101844.34
2022-09-05T11:40:00.000Z,101839.25
2022-09-05T11:41:59.230Z,101843.91
2022-09-05T11:44:53.720Z,101832.81
2022-09-05T11:48:03.117Z,101833.06
2022-09-05T11:51:08.121Z,101827.56
2022-09-05T11:54:27.198Z,101833.66
2022-09-05T11:57:34.751Z,101821.09
2022-09-05T12:00:32.125Z,101824.06
2022-09-05T12:03:59.653Z,101824.91
2022-09-05T12:07:01.275Z,101815.06
2022-09-05T12:10:46.074Z,101811.25
2022-09-05T12:13:47.707Z,101815.47
2022-09-05T12:16:39.009Z,101798.41
2022-09-05T12:19:53.526Z,101803.25
2022-09-05T12:22:37.954Z,101800.19
2022-09-05T12:27:35.403Z,101796.13
2022-09-05T12:29:26.610Z,101794.72
2022-09-05T12:32:07.319Z,101788.78
2022-09-05T12:36:10.117Z,101792.38
2022-09-05T12:40:05.119Z,101796.00
2022-09-05T12:41:37.770Z,101789.03
2022-09-05T12:43:57.342Z,101787.38
2022-09-05T12:46:34.742Z,101772.84
2022-09-05T12:49:14.632Z,101772.03
2022-09-05T12:52:07.929Z,101772.63
2022-09-05T12:54:57.007Z,101775.59
2022-09-05T13:00:20.135Z,101765.41
2022-09-05T13:03:08.222Z,101761.50
2022-09-05T13:03:33.690Z,101753.78
2022-09-05T13:06:25.544Z,101748.25
2022-09-05T13:09:07.809Z,101755.44
2022-09-05T13:14:53.084Z,101747.13
2022-09-05T13:15:29.197Z,101742.09
2022-09-05T13:18:31.146Z,101741.31
2022-09-05T13:21:36.105Z,101745.75
2022-09-05T13:27:43.171Z,101736.59
2022-09-05T13:36:14.177Z,101736.63
2022-09-05T13:38:15.037Z,101738.75
2022-09-05T13:38:17.983Z,101732.44
2022-09-05T13:40:27.420Z,101741.50
2022-09-05T13:43:45.758Z,101732.59
2022-09-05T13:46:58.212Z,101730.41
2022-09-05T13:49:49.413Z,101737.69
2022-09-05T13:53:00.955Z,101732.66
2022-09-05T13:56:03.173Z,101724.72
2022-09-05T13:58:57.319Z,101727.19
2022-09-05T14:02:25.143Z,101731.75
2022-09-05T14:05:25.851Z,101720.31
2022-09-05T14:08:44.530Z,101724.25
2022-09-05T14:11:59.352Z,101722.03
2022-09-05T14:15:14.043Z,101720.94
2022-09-05T14:18:20.078Z,101716.78
2022-09-05T14:21:19.322Z,101710.38
2022-09-05T14:24:03.235Z,101718.00
2022-09-05T14:27:12.754Z,101718.66
2022-09-05T14:30:36.943Z,101722.97
2022-09-05T14:37:41.990Z,101716.31
2022-09-05T14:37:55.498Z,101707.22
2022-09-05T14:40:29.536Z,101718.19
2022-09-05T14:43:38.043Z,101714.84
2022-09-05T14:46:17.705Z,101718.19
2022-09-05T14:49:25.587Z,101719.97
2022-09-05T14:52:03.956Z,101720.53
2022-09-05T15:02:42.424Z,101715.59
2022-09-05T15:02:46.049Z,101717.94
2022-09-05T15:07:25.484Z,101714.75
2022-09-05T15:12:18.914Z,101713.22
2022-09-05T15:13:12.296Z,101716.88
2022-09-05T15:16:00.683Z,101712.25
2022-09-05T15:18:54.454Z,101709.53
2022-09-05T15:21:44.492Z,101717.53
2022-09-05T15:24:24.663Z,101707.38
2022-09-05T15:27:09.629Z,101711.13
2022-09-05T15:29:48.415Z,101710.88
2022-09-05T15:32:30.985Z,101701.22
2022-09-05T15:35:02.588Z,101702.34
2022-09-05T15:37:41.388Z,101704.66
2022-09-05T15:40:24.486Z,101701.53
2022-09-05T15:43:04.456Z,101699.50
2022-09-05T15:45:42.418Z,101700.72
2022-09-05T15:48:33.968Z,101700.44
2022-09-05T15:51:32.808Z,101698.22
2022-09-05T15:54:08.660Z,101706.22
2022-09-05T15:56:53.117Z,101702.75
2022-09-05T15:59:48.126Z,101712.41
2022-09-05T16:02:24.702Z,101700.31
2022-09-05T16:10:33.646Z,101701.38
2022-09-05T16:10:43.607Z,101702.50
2022-09-05T16:12:08.952Z,101701.06
2022-09-05T16:16:32.320Z,101701.91
2022-09-05T16:23:13.324Z,101710.34
2022-09-05T16:23:27.787Z,101720.88
2022-09-05T16:23:54.323Z,101711.84
2022-09-05T16:26:33.143Z,101723.38
2022-09-05T16:29:43.607Z,101722.97
2022-09-05T16:32:21.184Z,101724.84
2022-09-05T16:35:17.004Z,101720.44
2022-09-05T16:38:09.118Z,101713.75
2022-09-05T16:40:45.261Z,101726.72
2022-09-05T16:43:29.950Z,101732.16
2022-09-05T16:46:21.066Z,101735.94
2022-09-05T16:49:11.748Z,101737.63
2022-09-05T16:52:08.308Z,101764.63
2022-09-05T16:54:59.943Z,101782.88
2022-09-05T16:57:40.608Z,101780.34
2022-09-05T17:00:13.619Z,101789.41
2022-09-05T17:03:28.533Z,101781.63
2022-09-05T17:06:25.517Z,101791.50
2022-09-05T17:09:12.923Z,101781.84
2022-09-05T17:12:00.197Z,101789.56
2022-09-05T17:14:39.135Z,101780.19
2022-09-05T17:18:19.487Z,101789.16
2022-09-05T17:20:22.409Z,101787.28
2022-09-05T17:28:29.972Z,101789.41
2022-09-05T17:29:25.749Z,101789.63
2022-09-05T17:29:30.258Z,101787.75
2022-09-05T17:31:58.012Z,101783.53
2022-09-05T17:35:17.085Z,101783.94
2022-09-05T17:38:37.557Z,101784.59
2022-09-05T17:41:48.002Z,101790.84
2022-09-05T17:44:32.608Z,101790.03
2022-09-05T17:47:36.315Z,101794.63
2022-09-05T17:50:45.156Z,101794.22
2022-09-05T17:53:25.167Z,101795.88
2022-09-05T17:55:58.872Z,101796.03
2022-09-05T17:58:49.346Z,101801.75
2022-09-05T18:01:33.040Z,101802.78
2022-09-05T18:04:18.077Z,101807.22
2022-09-05T18:06:59.625Z,101805.97
2022-09-05T18:09:50.149Z,101803.44
2022-09-05T18:13:31.654Z,101811.81
2022-09-05T18:15:41.530Z,101806.16
2022-09-05T18:19:28.466Z,101814.25
2022-09-05T18:22:00.906Z,101810.75
2022-09-05T18:24:48.774Z,101805.50
2022-09-05T18:28:04.943Z,101803.81
2022-09-05T18:33:54.010Z,101810.03
2022-09-05T18:36:25.970Z,101808.81
2022-09-05T18:39:38.931Z,101806.06
2022-09-05T18:42:34.666Z,101800.78
2022-09-05T18:45:16.718Z,101804.53
2022-09-05T18:47:59.517Z,101797.41
2022-09-05T18:50:41.087Z,101806.16
2022-09-05T18:53:13.390Z,101802.59
2022-09-05T18:56:19.903Z,101809.91
2022-09-05T18:59:10.005Z,101801.94
2022-09-05T19:02:32.103Z,101803.38
2022-09-05T19:05:28.610Z,101806.81
2022-09-05T19:08:06.206Z,101812.25
2022-09-05T19:10:41.845Z,101805.13
2022-09-05T19:13:44.562Z,101815.53
2022-09-05T19:16:47.220Z,101815.53
2022-09-05T19:19:24.588Z,101809.63
2022-09-05T19:23:02.653Z,101813.41
2022-09-05T19:24:53.062Z,101814.19
2022-09-05T19:30:00.494Z,101811.19
2022-09-05T19:36:58.908Z,101817.06
2022-09-05T19:37:10.676Z,101809.94
2022-09-05T19:37:23.672Z,101814.13
2022-09-05T19:44:29.519Z,101807.44
2022-09-05T19:47:47.690Z,101803.34
2022-09-05T19:47:51.862Z,101804.84
2022-09-05T19:48:34.584Z,101807.75
2022-09-05T19:51:26.945Z,101800.22
2022-09-05T19:54:04.490Z,101804.81
2022-09-05T19:56:46.966Z,101809.84
2022-09-05T19:59:39.599Z,101808.25
2022-09-05T20:02:20.323Z,101808.66
2022-09-05T20:04:56.165Z,101810.34
2022-09-05T20:07:30.868Z,101823.47
2022-09-05T20:10:05.734Z,101815.72
2022-09-05T20:12:42.440Z,101813.59
2022-09-05T20:15:37.617Z,101804.78
2022-09-05T20:18:37.867Z,101810.41
2022-09-05T20:21:35.242Z,101808.50
2022-09-05T20:24:06.537Z,101807.41
2022-09-05T20:26:37.449Z,101799.44
2022-09-05T20:29:09.838Z,101791.78
2022-09-05T20:31:39.963Z,101786.56
2022-09-05T20:36:21.595Z,101792.28
2022-09-05T20:43:10.321Z,101786.84
2022-09-05T20:43:35.225Z,101778.81
2022-09-05T20:43:35.239Z,101770.69
2022-09-05T20:48:48.952Z,101762.00
2022-09-05T20:54:08.975Z,101776.03
2022-09-05T20:54:25.370Z,101768.72
2022-09-05T20:54:48.254Z,101772.75
2022-09-05T20:57:28.757Z,101762.75
2022-09-05T21:00:08.665Z,101766.41
2022-09-05T21:03:01.563Z,101763.97
2022-09-05T21:05:35.575Z,101765.09
2022-09-05T21:08:21.644Z,101760.06
2022-09-05T21:10:57.550Z,101755.09
2022-09-05T21:13:32.712Z,101752.97
2022-09-05T21:16:06.859Z,101750.44
2022-09-05T21:18:45.150Z,101754.28
2022-09-05T21:21:34.900Z,101751.59
2022-09-05T21:24:16.032Z,101755.31
2022-09-05T21:26:50.693Z,101750.66
2022-09-05T21:29:34.838Z,101748.13
2022-09-05T21:32:11.025Z,101756.16
2022-09-05T21:34:55.007Z,101754.94
2022-09-05T21:37:28.089Z,101750.34
2022-09-05T21:40:00.852Z,101749.53
2022-09-05T21:45:35.369Z,101751.59
2022-09-05T21:47:48.488Z,101741.56
2022-09-05T21:48:26.063Z,101740.63
2022-09-05T21:50:59.489Z,101740.63
2022-09-05T21:55:02.783Z,101747.28
2022-09-05T21:59:21.454Z,101750.19
2022-09-05T21:59:46.076Z,101744.66
2022-09-05T22:02:17.037Z,101754.97
2022-09-05T22:04:47.354Z,101751.50
2022-09-05T22:07:27.723Z,101754.22
2022-09-05T22:10:06.782Z,101758.03
2022-09-05T22:12:39.525Z,101758.22
2022-09-05T22:15:28.274Z,101763.66
2022-09-05T22:18:16.701Z,101759.53
2022-09-05T22:20:53.454Z,101754.47
2022-09-05T22:23:48.588Z,101755.78
2022-09-05T22:26:19.397Z,101753.56
2022-09-05T22:28:51.169Z,101744.75
2022-09-05T22:31:22.958Z,101757.00
2022-09-05T22:33:52.361Z,101753.03
2022-09-05T22:40:30.485Z,101754.16
2022-09-05T22:43:01.474Z,101751.06
2022-09-05T22:45:31.010Z,101748.38
2022-09-05T22:48:07.686Z,101743.25
2022-09-05T22:50:36.711Z,101740.91
2022-09-05T22:53:07.574Z,101747.44
2022-09-05T22:55:38.334Z,101744.56
2022-09-05T22:58:10.815Z,101739.91
2022-09-05T23:00:44.264Z,101746.78
2022-09-05T23:03:13.305Z,101751.28
2022-09-05T23:05:41.128Z,101746.72
2022-09-05T23:08:12.726Z,101761.09
2022-09-05T23:10:41.542Z,101753.22
2022-09-05T23:13:11.314Z,101752.31
2022-09-05T23:15:40.383Z,101755.56
2022-09-05T23:18:09.074Z,101752.00
2022-09-05T23:20:39.835Z,101750.50
2022-09-05T23:30:09.735Z,101757.06
2022-09-05T23:32:44.975Z,101762.84
2022-09-05T23:37:15.293Z,101757.19
2022-09-05T23:39:43.098Z,101751.31
2022-09-05T23:42:12.057Z,101754.00
2022-09-05T23:44:40.116Z,101757.19
2022-09-05T23:47:08.050Z,101756.56
2022-09-05T23:49:36.838Z,101753.69
2022-09-05T23:52:04.990Z,101751.53
2022-09-05T23:54:33.738Z,101749.91
2022-09-05T23:57:04.600Z,101745.88
2022-09-05T23:59:33.772Z,101744.19
